Terminal Aerodrome Forecast
Issued by NWS Jacksonville, FL

Home | Current Version | Previous Version | Text Only | Print | Product List | Glossary On
Versions: 1 2 3 4 5 6 7 8 9 10 11 12 13 14 15 16 17 18 19 20 21 22 23 24 25 26 27 28 29 30 31
190
FTUS42 KJAX 201737
TAFSSI
TAF
KSSI 201737Z 2018/2118 11010KT P6SM SCT035
      TEMPO 2018/2019 BKN035
     FM210000 11007KT P6SM SCT025
     FM210800 10005KT 3SM BR SCT006 BKN012
     FM211500 11008KT P6SM BKN020=

USA.gov is the U.S. government's official web portal to all federal, state and local government web resources and services.